sensor_id;sensor_type;location;lat;lon;timestamp;pressure;altitude;pressure_sealevel;temperature;humidity
40838;BME280;29632;49.168;9.848;2023-05-08T00:01:56;97084.72;;;20.68;45.64
40838;BME280;29632;49.168;9.848;2023-05-08T00:04:21;97078.63;;;20.67;45.52
40838;BME280;29632;49.168;9.848;2023-05-08T00:06:47;97080.25;;;20.68;45.48
40838;BME280;29632;49.168;9.848;2023-05-08T00:09:13;97074.13;;;20.68;45.54
40838;BME280;29632;49.168;9.848;2023-05-08T00:11:38;97078.44;;;20.69;45.41
40838;BME280;29632;49.168;9.848;2023-05-08T00:14:04;97075.56;;;20.70;45.27
40838;BME280;29632;49.168;9.848;2023-05-08T00:16:31;97077.41;;;20.70;45.45
40838;BME280;29632;49.168;9.848;2023-05-08T00:18:56;97073.94;;;20.69;45.58
40838;BME280;29632;49.168;9.848;2023-05-08T00:21:22;97074.94;;;20.68;45.58
40838;BME280;29632;49.168;9.848;2023-05-08T00:23:49;97080.25;;;20.68;45.57
40838;BME280;29632;49.168;9.848;2023-05-08T00:26:14;97077.59;;;20.68;45.67
40838;BME280;29632;49.168;9.848;2023-05-08T00:28:40;97081.69;;;20.71;45.53
40838;BME280;29632;49.168;9.848;2023-05-08T00:31:05;97084.53;;;20.69;45.59
40838;BME280;29632;49.168;9.848;2023-05-08T00:33:31;97077.59;;;20.68;45.54
40838;BME280;29632;49.168;9.848;2023-05-08T00:35:58;97089.00;;;20.69;45.61
40838;BME280;29632;49.168;9.848;2023-05-08T00:38:24;97083.91;;;20.67;45.73
40838;BME280;29632;49.168;9.848;2023-05-08T00:40:49;97086.56;;;20.67;45.64
40838;BME280;29632;49.168;9.848;2023-05-08T00:43:15;97092.66;;;20.68;45.53
40838;BME280;29632;49.168;9.848;2023-05-08T00:45:41;97087.38;;;20.68;45.62
40838;BME280;29632;49.168;9.848;2023-05-08T00:48:06;97090.00;;;20.68;45.61
40838;BME280;29632;49.168;9.848;2023-05-08T00:50:32;97088.19;;;20.68;45.49
40838;BME280;29632;49.168;9.848;2023-05-08T00:52:59;97090.81;;;20.68;45.63
40838;BME280;29632;49.168;9.848;2023-05-08T00:55:26;97087.38;;;20.68;45.57
40838;BME280;29632;49.168;9.848;2023-05-08T00:57:52;97092.06;;;20.66;45.70
40838;BME280;29632;49.168;9.848;2023-05-08T01:00:18;97100.19;;;20.64;45.81
40838;BME280;29632;49.168;9.848;2023-05-08T01:02:45;97098.75;;;20.62;45.79
40838;BME280;29632;49.168;9.848;2023-05-08T01:05:11;97097.09;;;20.61;45.92
40838;BME280;29632;49.168;9.848;2023-05-08T01:07:36;97101.59;;;20.60;45.98
40838;BME280;29632;49.168;9.848;2023-05-08T01:10:04;97105.44;;;20.58;45.95
40838;BME280;29632;49.168;9.848;2023-05-08T01:15:53;97093.84;;;20.59;45.91
40838;BME280;29632;49.168;9.848;2023-05-08T01:18:35;97091.19;;;20.59;46.01
40838;BME280;29632;49.168;9.848;2023-05-08T01:23:48;97105.03;;;20.61;45.95
40838;BME280;29632;49.168;9.848;2023-05-08T01:32:26;97099.38;;;20.64;45.93
40838;BME280;29632;49.168;9.848;2023-05-08T01:37:28;97100.38;;;20.63;46.11
40838;BME280;29632;49.168;9.848;2023-05-08T01:45:00;97100.00;;;20.66;45.98
40838;BME280;29632;49.168;9.848;2023-05-08T01:47:32;97101.00;;;20.65;46.15
40838;BME280;29632;49.168;9.848;2023-05-08T01:50:16;97104.44;;;20.65;46.09
40838;BME280;29632;49.168;9.848;2023-05-08T01:53:06;97104.44;;;20.65;46.29
40838;BME280;29632;49.168;9.848;2023-05-08T01:55:35;97105.47;;;20.64;46.29
40838;BME280;29632;49.168;9.848;2023-05-08T01:58:06;97109.97;;;20.64;46.00
40838;BME280;29632;49.168;9.848;2023-05-08T02:00:32;97111.59;;;20.65;46.20
40838;BME280;29632;49.168;9.848;2023-05-08T02:02:58;97115.25;;;20.64;46.30
40838;BME280;29632;49.168;9.848;2023-05-08T02:05:25;97119.72;;;20.63;46.02
40838;BME280;29632;49.168;9.848;2023-05-08T02:07:51;97118.91;;;20.63;46.23
40838;BME280;29632;49.168;9.848;2023-05-08T02:10:19;97119.91;;;20.62;46.23
40838;BME280;29632;49.168;9.848;2023-05-08T02:12:46;97119.06;;;20.61;46.22
40838;BME280;29632;49.168;9.848;2023-05-08T02:15:13;97127.19;;;20.60;46.00
40838;BME280;29632;49.168;9.848;2023-05-08T02:17:39;97124.75;;;20.58;46.20
40838;BME280;29632;49.168;9.848;2023-05-08T02:20:06;97123.34;;;20.55;46.19
40838;BME280;29632;49.168;9.848;2023-05-08T02:22:33;97126.19;;;20.54;46.48
40838;BME280;29632;49.168;9.848;2023-05-08T02:24:59;97123.72;;;20.52;46.26
40838;BME280;29632;49.168;9.848;2023-05-08T02:27:27;97126.19;;;20.54;46.35
40838;BME280;29632;49.168;9.848;2023-05-08T02:29:53;97126.19;;;20.54;46.44
40838;BME280;29632;49.168;9.848;2023-05-08T02:32:20;97124.34;;;20.54;46.51
40838;BME280;29632;49.168;9.848;2023-05-08T02:34:48;97124.34;;;20.54;46.41
40838;BME280;29632;49.168;9.848;2023-05-08T02:37:15;97129.00;;;20.52;46.42
40838;BME280;29632;49.168;9.848;2023-05-08T02:39:42;97126.75;;;20.49;46.36
40838;BME280;29632;49.168;9.848;2023-05-08T02:42:10;97130.81;;;20.45;46.44
40838;BME280;29632;49.168;9.848;2023-05-08T02:44:36;97129.59;;;20.41;46.64
40838;BME280;29632;49.168;9.848;2023-05-08T02:47:09;97122.84;;;20.38;46.51
40838;BME280;29632;49.168;9.848;2023-05-08T02:49:45;97128.97;;;20.39;46.56
40838;BME280;29632;49.168;9.848;2023-05-08T02:52:17;97128.97;;;20.39;46.52
40838;BME280;29632;49.168;9.848;2023-05-08T03:02:46;97127.53;;;20.36;46.59
40838;BME280;29632;49.168;9.848;2023-05-08T03:05:22;97122.44;;;20.35;46.62
40838;BME280;29632;49.168;9.848;2023-05-08T03:07:51;97124.28;;;20.34;46.54
40838;BME280;29632;49.168;9.848;2023-05-08T03:10:20;97125.47;;;20.32;46.52
40838;BME280;29632;49.168;9.848;2023-05-08T03:12:49;97119.56;;;20.30;46.57
40838;BME280;29632;49.168;9.848;2023-05-08T03:15:26;97125.91;;;20.29;46.65
40838;BME280;29632;49.168;9.848;2023-05-08T03:17:57;97112.03;;;20.27;46.58
40838;BME280;29632;49.168;9.848;2023-05-08T03:20:25;97117.53;;;20.25;46.48
40838;BME280;29632;49.168;9.848;2023-05-08T03:22:52;97114.25;;;20.23;46.80
40838;BME280;29632;49.168;9.848;2023-05-08T03:25:19;97114.44;;;20.22;46.66
40838;BME280;29632;49.168;9.848;2023-05-08T03:27:45;97110.19;;;20.21;46.53
40838;BME280;29632;49.168;9.848;2023-05-08T03:30:12;97109.56;;;20.18;46.58
40838;BME280;29632;49.168;9.848;2023-05-08T03:32:38;97113.22;;;20.17;46.66
40838;BME280;29632;49.168;9.848;2023-05-08T03:35:05;97118.69;;;20.16;46.54
40838;BME280;29632;49.168;9.848;2023-05-08T03:37:31;97108.50;;;20.13;46.80
40838;BME280;29632;49.168;9.848;2023-05-08T03:39:57;97113.19;;;20.11;46.89
40838;BME280;29632;49.168;9.848;2023-05-08T03:42:23;97111.75;;;20.08;46.84
40838;BME280;29632;49.168;9.848;2023-05-08T03:44:50;97120.69;;;20.07;46.71
40838;BME280;29632;49.168;9.848;2023-05-08T03:47:17;97114.78;;;20.05;46.77
40838;BME280;29632;49.168;9.848;2023-05-08T03:49:48;97121.28;;;20.03;46.86
40838;BME280;29632;49.168;9.848;2023-05-08T03:52:14;97123.09;;;20.02;46.77
40838;BME280;29632;49.168;9.848;2023-05-08T03:54:41;97127.78;;;20.00;46.65
40838;BME280;29632;49.168;9.848;2023-05-08T03:57:07;97126.34;;;19.97;46.73
40838;BME280;29632;49.168;9.848;2023-05-08T03:59:51;97128.56;;;19.94;46.79
40838;BME280;29632;49.168;9.848;2023-05-08T04:02:47;97124.66;;;19.90;46.91
40838;BME280;29632;49.168;9.848;2023-05-08T04:05:25;97137.44;;;19.86;46.84
40838;BME280;29632;49.168;9.848;2023-05-08T04:08:08;97132.53;;;19.83;46.87
40838;BME280;29632;49.168;9.848;2023-05-08T04:10:43;97136.22;;;19.82;46.80
40838;BME280;29632;49.168;9.848;2023-05-08T04:13:17;97138.25;;;19.80;46.98
40838;BME280;29632;49.168;9.848;2023-05-08T04:15:51;97141.88;;;19.79;46.73
40838;BME280;29632;49.168;9.848;2023-05-08T04:18:23;97148.81;;;19.80;46.72
40838;BME280;29632;49.168;9.848;2023-05-08T04:20:49;97147.34;;;19.77;47.00
40838;BME280;29632;49.168;9.848;2023-05-08T04:23:19;97146.09;;;19.73;46.82
40838;BME280;29632;49.168;9.848;2023-05-08T04:25:45;97148.50;;;19.68;46.84
40838;BME280;29632;49.168;9.848;2023-05-08T04:28:12;97148.88;;;19.65;47.02
40838;BME280;29632;49.168;9.848;2023-05-08T04:30:38;97152.72;;;19.62;47.05
40838;BME280;29632;49.168;9.848;2023-05-08T04:33:04;97156.56;;;19.60;47.17
40838;BME280;29632;49.168;9.848;2023-05-08T04:35:32;97158.75;;;19.56;47.07
40838;BME280;29632;49.168;9.848;2023-05-08T04:37:58;97160.16;;;19.52;47.14
40838;BME280;29632;49.168;9.848;2023-05-08T04:40:24;97160.53;;;19.49;47.13
40838;BME280;29632;49.168;9.848;2023-05-08T04:42:50;97170.66;;;19.46;47.01
40838;BME280;29632;49.168;9.848;2023-05-08T04:45:16;97168.41;;;19.42;47.06
40838;BME280;29632;49.168;9.848;2023-05-08T04:47:42;97164.34;;;19.40;46.95
40838;BME280;29632;49.168;9.848;2023-05-08T04:50:08;97170.41;;;19.40;47.16
40838;BME280;29632;49.168;9.848;2023-05-08T04:52:33;97174.47;;;19.36;47.21
40838;BME280;29632;49.168;9.848;2023-05-08T04:54:59;97174.84;;;19.33;47.14
40838;BME280;29632;49.168;9.848;2023-05-08T04:57:25;97176.84;;;19.31;47.15
40838;BME280;29632;49.168;9.848;2023-05-08T04:59:50;97177.84;;;19.30;47.27
40838;BME280;29632;49.168;9.848;2023-05-08T05:02:16;97177.22;;;19.28;47.23
40838;BME280;29632;49.168;9.848;2023-05-08T05:04:42;97183.50;;;19.27;47.16
40838;BME280;29632;49.168;9.848;2023-05-08T05:07:08;97181.69;;;19.28;47.19
40838;BME280;29632;49.168;9.848;2023-05-08T05:09:33;97186.13;;;19.27;47.09
40838;BME280;29632;49.168;9.848;2023-05-08T05:12:05;97177.59;;;19.25;47.03
40838;BME280;29632;49.168;9.848;2023-05-08T05:14:31;97174.94;;;19.25;47.15
40838;BME280;29632;49.168;9.848;2023-05-08T05:16:56;97179.69;;;19.30;47.21
40838;BME280;29632;49.168;9.848;2023-05-08T05:19:22;97183.31;;;19.29;47.13
40838;BME280;29632;49.168;9.848;2023-05-08T05:21:48;97190.25;;;19.30;47.16
40838;BME280;29632;49.168;9.848;2023-05-08T05:24:13;97186.56;;;19.31;47.33
40838;BME280;29632;49.168;9.848;2023-05-08T05:26:39;97184.16;;;19.29;47.20
40838;BME280;29632;49.168;9.848;2023-05-08T05:29:05;97185.94;;;19.29;47.28
40838;BME280;29632;49.168;9.848;2023-05-08T05:31:31;97185.75;;;19.30;47.37
40838;BME280;29632;49.168;9.848;2023-05-08T05:33:57;97188.59;;;19.29;47.18
40838;BME280;29632;49.168;9.848;2023-05-08T05:36:23;97196.69;;;19.27;47.11
40838;BME280;29632;49.168;9.848;2023-05-08T05:38:49;97190.78;;;19.25;47.38
40838;BME280;29632;49.168;9.848;2023-05-08T05:41:15;97197.09;;;19.24;47.61
40838;BME280;29632;49.168;9.848;2023-05-08T05:43:40;97199.31;;;19.20;47.40
40838;BME280;29632;49.168;9.848;2023-05-08T05:46:07;97198.47;;;19.20;47.27
40838;BME280;29632;49.168;9.848;2023-05-08T05:48:33;97203.75;;;19.20;47.56
40838;BME280;29632;49.168;9.848;2023-05-08T05:50:59;97205.56;;;19.19;47.30
40838;BME280;29632;49.168;9.848;2023-05-08T05:53:24;97198.03;;;19.16;47.64
40838;BME280;29632;49.168;9.848;2023-05-08T05:55:50;97206.97;;;19.15;47.46
40838;BME280;29632;49.168;9.848;2023-05-08T05:58:15;97205.31;;;19.14;47.63
40838;BME280;29632;49.168;9.848;2023-05-08T06:00:42;97204.50;;;19.14;47.52
40838;BME280;29632;49.168;9.848;2023-05-08T06:03:07;97200.03;;;19.14;47.56
40838;BME280;29632;49.168;9.848;2023-05-08T06:05:35;97206.78;;;19.17;47.27
40838;BME280;29632;49.168;9.848;2023-05-08T06:08:01;97206.97;;;19.15;47.30
40838;BME280;29632;49.168;9.848;2023-05-08T06:10:27;97207.59;;;19.17;47.23
40838;BME280;29632;49.168;9.848;2023-05-08T06:12:52;97206.78;;;19.17;47.31
40838;BME280;29632;49.168;9.848;2023-05-08T06:15:19;97207.78;;;19.16;47.45
40838;BME280;29632;49.168;9.848;2023-05-08T06:17:45;97212.25;;;19.15;47.40
40838;BME280;29632;49.168;9.848;2023-05-08T06:20:11;97214.03;;;19.15;47.25
40838;BME280;29632;49.168;9.848;2023-05-08T06:22:36;97216.69;;;19.15;47.65
40838;BME280;29632;49.168;9.848;2023-05-08T06:25:03;97221.34;;;19.13;47.35
40838;BME280;29632;49.168;9.848;2023-05-08T06:27:31;97219.72;;;19.12;47.34
40838;BME280;29632;49.168;9.848;2023-05-08T06:29:58;97220.09;;;19.09;47.54
40838;BME280;29632;49.168;9.848;2023-05-08T06:32:24;97221.09;;;19.08;47.65
40838;BME280;29632;49.168;9.848;2023-05-08T06:34:49;97221.09;;;19.08;47.72
40838;BME280;29632;49.168;9.848;2023-05-08T06:37:15;97215.81;;;19.08;47.55
40838;BME280;29632;49.168;9.848;2023-05-08T06:39:41;97227.56;;;19.05;47.68
40838;BME280;29632;49.168;9.848;2023-05-08T06:42:06;97225.91;;;19.04;47.51
40838;BME280;29632;49.168;9.848;2023-05-08T06:44:32;97220.66;;;19.04;47.58
40838;BME280;29632;49.168;9.848;2023-05-08T06:46:58;97227.75;;;19.03;47.61
40838;BME280;29632;49.168;9.848;2023-05-08T06:49:24;97216.16;;;19.04;47.45
40838;BME280;29632;49.168;9.848;2023-05-08T06:51:49;97224.31;;;19.03;47.64
40838;BME280;29632;49.168;9.848;2023-05-08T06:54:15;97229.59;;;19.03;47.67
40838;BME280;29632;49.168;9.848;2023-05-08T06:56:41;97226.09;;;19.02;47.56
40838;BME280;29632;49.168;9.848;2023-05-08T06:59:07;97227.50;;;18.98;47.72
40838;BME280;29632;49.168;9.848;2023-05-08T07:01:33;97220.56;;;18.97;47.86
40838;BME280;29632;49.168;9.848;2023-05-08T07:03:59;97225.22;;;18.95;47.62
40838;BME280;29632;49.168;9.848;2023-05-08T07:06:25;97225.84;;;18.97;47.83
40838;BME280;29632;49.168;9.848;2023-05-08T07:08:52;97221.78;;;18.95;47.75
40838;BME280;29632;49.168;9.848;2023-05-08T07:11:17;97222.56;;;18.95;47.69
40838;BME280;29632;49.168;9.848;2023-05-08T07:13:45;97221.59;;;18.96;47.79
40838;BME280;29632;49.168;9.848;2023-05-08T07:16:13;97228.47;;;18.97;47.35
40838;BME280;29632;49.168;9.848;2023-05-08T07:18:39;97225.84;;;18.97;47.74
40838;BME280;29632;49.168;9.848;2023-05-08T07:21:04;97230.50;;;18.95;47.87
40838;BME280;29632;49.168;9.848;2023-05-08T07:23:30;97234.16;;;18.94;47.63
40838;BME280;29632;49.168;9.848;2023-05-08T07:25:56;97230.69;;;18.94;47.92
40838;BME280;29632;49.168;9.848;2023-05-08T07:28:22;97235.16;;;18.93;47.83
40838;BME280;29632;49.168;9.848;2023-05-08T07:30:48;97235.16;;;18.93;47.75
40838;BME280;29632;49.168;9.848;2023-05-08T07:33:13;97248.16;;;18.95;47.80
40838;BME280;29632;49.168;9.848;2023-05-08T07:35:39;97236.59;;;18.96;47.87
40838;BME280;29632;49.168;9.848;2023-05-08T07:38:05;97239.22;;;18.96;47.89
40838;BME280;29632;49.168;9.848;2023-05-08T07:40:31;97238.22;;;18.97;47.98
40838;BME280;29632;49.168;9.848;2023-05-08T07:42:57;97242.69;;;18.96;47.93
40838;BME280;29632;49.168;9.848;2023-05-08T07:45:22;97247.13;;;18.96;47.95
40838;BME280;29632;49.168;9.848;2023-05-08T07:47:53;97246.34;;;18.95;47.85
40838;BME280;29632;49.168;9.848;2023-05-08T07:50:20;97240.06;;;18.96;47.93
40838;BME280;29632;49.168;9.848;2023-05-08T07:52:46;97246.78;;;18.99;48.09
40838;BME280;29632;49.168;9.848;2023-05-08T07:55:13;97248.41;;;19.00;48.18
40838;BME280;29632;49.168;9.848;2023-05-08T07:57:39;97249.22;;;19.00;47.86
40838;BME280;29632;49.168;9.848;2023-05-08T08:00:06;97243.78;;;19.02;47.90
40838;BME280;29632;49.168;9.848;2023-05-08T08:02:33;97245.03;;;19.06;47.72
40838;BME280;29632;49.168;9.848;2023-05-08T08:04:58;97245.03;;;19.06;47.90
40838;BME280;29632;49.168;9.848;2023-05-08T08:07:24;97245.88;;;19.07;47.99
40838;BME280;29632;49.168;9.848;2023-05-08T08:09:50;97248.50;;;19.07;48.18
40838;BME280;29632;49.168;9.848;2023-05-08T08:12:16;97251.16;;;19.07;48.02
40838;BME280;29632;49.168;9.848;2023-05-08T08:14:41;97248.31;;;19.08;48.00
40838;BME280;29632;49.168;9.848;2023-05-08T08:17:07;97244.47;;;19.11;48.27
40838;BME280;29632;49.168;9.848;2023-05-08T08:19:33;97254.66;;;19.14;48.07
40838;BME280;29632;49.168;9.848;2023-05-08T08:21:58;97247.19;;;19.17;48.04
40838;BME280;29632;49.168;9.848;2023-05-08T08:24:25;97254.94;;;19.19;48.05
40838;BME280;29632;49.168;9.848;2023-05-08T08:26:50;97252.91;;;19.21;47.95
40838;BME280;29632;49.168;9.848;2023-05-08T08:29:16;97258.00;;;19.22;48.15
40838;BME280;29632;49.168;9.848;2023-05-08T08:31:42;97259.44;;;19.25;47.93
40838;BME280;29632;49.168;9.848;2023-05-08T08:34:07;97258.28;;;19.28;47.95
40838;BME280;29632;49.168;9.848;2023-05-08T08:36:33;97265.59;;;19.32;48.06
40838;BME280;29632;49.168;9.848;2023-05-08T08:38:58;97271.50;;;19.34;47.85
40838;BME280;29632;49.168;9.848;2023-05-08T08:41:25;97258.13;;;19.36;47.88
40838;BME280;29632;49.168;9.848;2023-05-08T08:43:53;97267.69;;;19.37;48.12
40838;BME280;29632;49.168;9.848;2023-05-08T08:46:21;97262.22;;;19.38;47.82
40838;BME280;29632;49.168;9.848;2023-05-08T08:48:48;97258.19;;;19.42;48.10
40838;BME280;29632;49.168;9.848;2023-05-08T08:51:26;97260.09;;;19.49;48.01
40838;BME280;29632;49.168;9.848;2023-05-08T08:54:03;97258.72;;;19.53;47.94
40838;BME280;29632;49.168;9.848;2023-05-08T08:56:32;97262.81;;;19.55;47.93
40838;BME280;29632;49.168;9.848;2023-05-08T08:58:59;97269.53;;;19.58;47.93
40838;BME280;29632;49.168;9.848;2023-05-08T09:01:26;97270.16;;;19.60;47.87
40838;BME280;29632;49.168;9.848;2023-05-08T09:03:56;97269.34;;;19.59;47.93
40838;BME280;29632;49.168;9.848;2023-05-08T09:06:22;97269.16;;;19.61;47.84
40838;BME280;29632;49.168;9.848;2023-05-08T09:08:48;97266.13;;;19.64;48.17
40838;BME280;29632;49.168;9.848;2023-05-08T09:11:13;97261.03;;;19.62;47.88
40838;BME280;29632;49.168;9.848;2023-05-08T09:13:39;97258.22;;;19.64;47.86
40838;BME280;29632;49.168;9.848;2023-05-08T09:16:05;97263.28;;;19.66;47.89
40838;BME280;29632;49.168;9.848;2023-05-08T09:18:31;97266.56;;;19.68;48.20
40838;BME280;29632;49.168;9.848;2023-05-08T09:20:56;97269.66;;;19.71;48.22
40838;BME280;29632;49.168;9.848;2023-05-08T09:23:23;97265.66;;;19.75;47.84
40838;BME280;29632;49.168;9.848;2023-05-08T09:25:48;97274.56;;;19.74;47.90
40838;BME280;29632;49.168;9.848;2023-05-08T09:28:20;97271.28;;;19.72;48.08
40838;BME280;29632;49.168;9.848;2023-05-08T09:30:56;97279.03;;;19.74;48.04
40838;BME280;29632;49.168;9.848;2023-05-08T09:33:26;97274.56;;;19.74;48.18
40838;BME280;29632;49.168;9.848;2023-05-08T09:35:53;97271.75;;;19.76;48.20
40838;BME280;29632;49.168;9.848;2023-05-08T09:41:14;97278.88;;;19.75;48.06
40838;BME280;29632;49.168;9.848;2023-05-08T09:43:44;97284.59;;;19.79;48.24
40838;BME280;29632;49.168;9.848;2023-05-08T09:46:25;97281.56;;;19.82;48.32
40838;BME280;29632;49.168;9.848;2023-05-08T09:48:52;97279.53;;;19.84;48.23
40838;BME280;29632;49.168;9.848;2023-05-08T09:51:18;97286.91;;;19.89;48.31
40838;BME280;29632;49.168;9.848;2023-05-08T09:53:44;97284.31;;;19.95;48.23
40838;BME280;29632;49.168;9.848;2023-05-08T09:56:10;97282.94;;;19.99;48.08
40838;BME280;29632;49.168;9.848;2023-05-08T09:58:43;97287.84;;;20.03;48.12
40838;BME280;29632;49.168;9.848;2023-05-08T10:01:28;97287.63;;;20.04;47.96
40838;BME280;29632;49.168;9.848;2023-05-08T10:03:54;97290.06;;;20.06;48.15
40838;BME280;29632;49.168;9.848;2023-05-08T10:06:19;97288.88;;;20.08;48.21
40838;BME280;29632;49.168;9.848;2023-05-08T10:08:45;97283.59;;;20.08;48.04
40838;BME280;29632;49.168;9.848;2023-05-08T10:11:17;97288.28;;;20.13;48.22
40838;BME280;29632;49.168;9.848;2023-05-08T10:13:43;97286.13;;;20.16;48.22
40838;BME280;29632;49.168;9.848;2023-05-08T10:16:18;97286.53;;;20.20;47.89
40838;BME280;29632;49.168;9.848;2023-05-08T10:18:46;97284.53;;;20.22;47.97
40838;BME280;29632;49.168;9.848;2023-05-08T10:21:16;97280.03;;;20.23;48.02
40838;BME280;29632;49.168;9.848;2023-05-08T10:23:42;97286.56;;;20.27;48.12
40838;BME280;29632;49.168;9.848;2023-05-08T10:26:12;97284.34;;;20.30;48.26
40838;BME280;29632;49.168;9.848;2023-05-08T10:28:54;97287.22;;;20.35;47.97
40838;BME280;29632;49.168;9.848;2023-05-08T10:31:21;97286.84;;;20.38;47.67
40838;BME280;29632;49.168;9.848;2023-05-08T10:33:49;97283.22;;;20.40;48.14
40838;BME280;29632;49.168;9.848;2023-05-08T10:36:16;97282.19;;;20.41;47.87
40838;BME280;29632;49.168;9.848;2023-05-08T10:38:41;97277.91;;;20.40;48.15
40838;BME280;29632;49.168;9.848;2023-05-08T10:41:08;97278.34;;;20.43;48.21
40838;BME280;29632;49.168;9.848;2023-05-08T10:43:34;97283.03;;;20.48;48.04
40838;BME280;29632;49.168;9.848;2023-05-08T10:48:55;97285.06;;;20.46;48.06
40838;BME280;29632;49.168;9.848;2023-05-08T10:54:12;97279.78;;;20.46;48.24
40838;BME280;29632;49.168;9.848;2023-05-08T10:56:43;97280.19;;;20.49;48.24
40838;BME280;29632;49.168;9.848;2023-05-08T10:59:19;97277.78;;;20.54;48.00
40838;BME280;29632;49.168;9.848;2023-05-08T11:01:48;97274.16;;;20.55;48.25
40838;BME280;29632;49.168;9.848;2023-05-08T11:04:23;97277.78;;;20.54;48.16
40838;BME280;29632;49.168;9.848;2023-05-08T11:06:49;97276.78;;;20.55;48.16
40838;BME280;29632;49.168;9.848;2023-05-08T11:09:43;97279.63;;;20.54;48.13
40838;BME280;29632;49.168;9.848;2023-05-08T11:12:25;97281.84;;;20.50;48.27
40838;BME280;29632;49.168;9.848;2023-05-08T11:15:05;97283.88;;;20.48;48.37
40838;BME280;29632;49.168;9.848;2023-05-08T11:17:31;97285.06;;;20.46;48.34
40838;BME280;29632;49.168;9.848;2023-05-08T11:19:59;97287.09;;;20.44;48.37
40838;BME280;29632;49.168;9.848;2023-05-08T11:22:26;97286.91;;;20.45;48.44
40838;BME280;29632;49.168;9.848;2023-05-08T11:25:03;97279.38;;;20.49;48.41
40838;BME280;29632;49.168;9.848;2023-05-08T11:27:37;97284.09;;;20.53;48.47
40838;BME280;29632;49.168;9.848;2023-05-08T11:33:18;97280.25;;;20.56;48.09
40838;BME280;29632;49.168;9.848;2023-05-08T11:35:54;97280.00;;;20.51;48.44
40838;BME280;29632;49.168;9.848;2023-05-08T11:40:59;97274.09;;;20.49;48.22
40838;BME280;29632;49.168;9.848;2023-05-08T11:46:00;97277.97;;;20.46;48.42
40838;BME280;29632;49.168;9.848;2023-05-08T11:48:28;97281.59;;;20.45;48.29
40838;BME280;29632;49.168;9.848;2023-05-08T11:50:54;97279.97;;;20.44;48.35
40838;BME280;29632;49.168;9.848;2023-05-08T11:53:20;97280.81;;;20.45;48.29
40838;BME280;29632;49.168;9.848;2023-05-08T11:55:49;97279.16;;;20.44;48.33
40838;BME280;29632;49.168;9.848;2023-05-08T11:58:17;97287.50;;;20.47;48.22
40838;BME280;29632;49.168;9.848;2023-05-08T12:00:43;97282.22;;;20.47;48.22
40838;BME280;29632;49.168;9.848;2023-05-08T12:03:17;97272.44;;;20.48;48.36
40838;BME280;29632;49.168;9.848;2023-05-08T12:05:43;97283.03;;;20.48;48.39
40838;BME280;29632;49.168;9.848;2023-05-08T12:08:09;97284.88;;;20.47;48.27
40838;BME280;29632;49.168;9.848;2023-05-08T12:10:40;97283.69;;;20.50;48.10
40838;BME280;29632;49.168;9.848;2023-05-08T12:13:19;97290.41;;;20.52;48.34
40838;BME280;29632;49.168;9.848;2023-05-08T12:15:46;97289.41;;;20.53;48.39
40838;BME280;29632;49.168;9.848;2023-05-08T12:18:12;97289.97;;;20.49;48.38
40838;BME280;29632;49.168;9.848;2023-05-08T12:20:38;97292.19;;;20.45;48.29
40838;BME280;29632;49.168;9.848;2023-05-08T12:23:04;97283.44;;;20.45;48.49
40838;BME280;29632;49.168;9.848;2023-05-08T12:25:30;97294.22;;;20.43;48.39
40838;BME280;29632;49.168;9.848;2023-05-08T12:27:55;97294.03;;;20.45;48.44
40838;BME280;29632;49.168;9.848;2023-05-08T12:30:21;97296.47;;;20.46;48.21
40838;BME280;29632;49.168;9.848;2023-05-08T12:32:47;97290.34;;;20.46;48.38
40838;BME280;29632;49.168;9.848;2023-05-08T12:35:13;97293.00;;;20.46;48.35
40838;BME280;29632;49.168;9.848;2023-05-08T12:37:40;97295.03;;;20.44;48.46
40838;BME280;29632;49.168;9.848;2023-05-08T12:40:06;97292.75;;;20.41;48.42
40838;BME280;29632;49.168;9.848;2023-05-08T12:42:47;97294.84;;;20.45;48.45
40838;BME280;29632;49.168;9.848;2023-05-08T12:45:35;97289.16;;;20.48;48.32
40838;BME280;29632;49.168;9.848;2023-05-08T12:48:04;97285.91;;;20.53;48.27
40838;BME280;29632;49.168;9.848;2023-05-08T12:50:38;97280.25;;;20.56;48.33
40838;BME280;29632;49.168;9.848;2023-05-08T12:53:07;97287.19;;;20.57;48.19
40838;BME280;29632;49.168;9.848;2023-05-08T12:55:35;97284.97;;;20.61;48.16
40838;BME280;29632;49.168;9.848;2023-05-08T12:58:04;97281.31;;;20.62;48.22
40838;BME280;29632;49.168;9.848;2023-05-08T13:03:07;97288.47;;;20.68;48.34
40838;BME280;29632;49.168;9.848;2023-05-08T13:05:34;97280.19;;;20.78;48.33
40838;BME280;29632;49.168;9.848;2023-05-08T13:08:05;97277.75;;;20.83;48.01
40838;BME280;29632;49.168;9.848;2023-05-08T13:10:52;97277.78;;;20.89;48.09
40838;BME280;29632;49.168;9.848;2023-05-08T13:13:19;97281.28;;;20.97;47.99
40838;BME280;29632;49.168;9.848;2023-05-08T13:15:46;97271.56;;;21.04;47.88
40838;BME280;29632;49.168;9.848;2023-05-08T13:18:12;97269.31;;;21.14;47.99
40838;BME280;29632;49.168;9.848;2023-05-08T13:20:38;97268.94;;;21.24;47.85
40838;BME280;29632;49.168;9.848;2023-05-08T13:23:04;97265.09;;;21.33;47.64
40838;BME280;29632;49.168;9.848;2023-05-08T13:25:30;97269.41;;;21.41;47.59
40838;BME280;29632;49.168;9.848;2023-05-08T13:27:57;97266.78;;;21.47;47.80
40838;BME280;29632;49.168;9.848;2023-05-08T13:30:23;97269.22;;;21.49;47.74
40838;BME280;29632;49.168;9.848;2023-05-08T13:32:49;97263.72;;;21.50;47.75
40838;BME280;29632;49.168;9.848;2023-05-08T13:35:15;97264.13;;;21.54;47.73
40838;BME280;29632;49.168;9.848;2023-05-08T13:37:41;97266.19;;;21.59;47.75
40838;BME280;29632;49.168;9.848;2023-05-08T13:40:07;97273.56;;;21.63;47.74
40838;BME280;29632;49.168;9.848;2023-05-08T13:42:33;97270.91;;;21.63;47.77
40838;BME280;29632;49.168;9.848;2023-05-08T13:44:58;97254.34;;;21.61;47.96
40838;BME280;29632;49.168;9.848;2023-05-08T13:47:24;97248.25;;;21.61;47.88
40838;BME280;29632;49.168;9.848;2023-05-08T13:49:50;97246.22;;;21.63;47.84
40838;BME280;29632;49.168;9.848;2023-05-08T13:52:16;97249.69;;;21.63;47.87